DTTJDTTA

Guest
Details From DTTJ - Djerba Zarzis
To DTTA - CARTHAGE
Flight Number -
Tags generated
Created
Modified
Stats Distance 181 nm / 335 km
Max Altitude 14,500 ft / 4,420 m
Waypoints 5
Social Downloads 3
Likes 0
Share VATSIM

Download

Looking for another format? Having issues loading an existing format? Contact us
Advertisement - Login to hide

Notes

Basic altitude profile: - Ascent Rate: 2500ft/min - Ascent Speed: 250kts - Cruise Altitude: 35000ft - Cruise Speed: 420kts - Descent Rate: 1500ft/min - Descent Speed: 250kts Options: - Use NATs: yes - Use PACOTS: yes - Use low airways: yes - Use high airways: yes

Route

DTTJ JBA M731 TUC DTTA

ID Type Via Altitude Latitude Longitude Leg Dist Tot Dist Heading (true) Name
O DTTJ APT - 0 ft / 0 m 33.87545˚ 10.77715˚ - 0 nm - Djerba Zarzis
JBA VOR - 100 ft / 30 m 33.87722˚ 10.77141˚ 0 nm 0 nm 290° / 290° DJERBA VOR-DME
BAMGI FIX M731 (AWY-LO) 14,500 ft / 4,420 m 35.71750˚ 10.42583˚ 111 nm 112 nm 351° / 351° -
TUC VOR M731 (AWY-LO) 14,500 ft / 4,420 m 36.85158˚ 10.23033˚ 68 nm 180 nm 352° / 352° TUNIS VOR-DME
O DTTA APT - 0 ft / 0 m 36.85127˚ 10.23003˚ 0 nm 180 nm 218° / 218° CARTHAGE

Altitude Profile

Advertisement - Login to hide

Weather


0- 5 10 15 20 25 30 35+ Temperature / ° C

Clouds and Precipitation
Forecast for 2018-05-21 06:00 UTC. Updated 42 minutes ago

Ground ~20,000 ft ~40,000 ft Winds

DTTJ

Details ICAO DTTJ (DJE)
Name Djerba Zarzis
Region Tunisia
Timezone Africa/Tunis (UTC+1.0)
Stats Elevation 18 ft / 5 m (AMSL)
Location 33.875447° 10.777153°
Runways 1
Magnetic Variation 2.367° E

METAR

DTTJ 210600Z 01007KT 8000 SCT020 20/17 Q1011 NOSIG

Decode

TAF

TAF DTTJ 210529Z 2106/2206 06008KT 8000 SCT020

Decode

Departure Runways

ID Width Length Bearing (true) Bearing (mag) Surface Threshold Offset Overrun Length
09 148 ft / 45 m 10,191 ft / 3,106 m 88.28° 85.91° Asphalt 0 ft / 0 m 197 ft / 60 m
27 148 ft / 45 m 10,191 ft / 3,106 m 268.30° 265.93° Asphalt 0 ft / 0 m 197 ft / 60 m

DTTA

Details ICAO DTTA (TUN)
Name CARTHAGE
Region Tunisia
Timezone Africa/Tunis (UTC+1.0)
Stats Elevation 22 ft / 7 m (AMSL)
Location 36.851267° 10.230027°
Runways 2
Magnetic Variation 2.445° E

METAR

DTTA 210600Z 20006KT 180V240 8000 -RA SCT026 BKN036 17/15 Q1012 NOSIG

Decode

TAF

TAF DTTA 210529Z 2106/2206 22008KT 8000 RA SCT026 BKN036= TAF DTMB 210529Z 2106/2206 36006KT 8000 FEW020

Decode

Destination Runways

ID Width Length Bearing (true) Bearing (mag) Surface Threshold Offset Overrun Length
01 148 ft / 45 m 10,502 ft / 3,201 m 12.29° 9.85° Asphalt 0 ft / 0 m 197 ft / 60 m
11 148 ft / 45 m 9,345 ft / 2,848 m 112.55° 110.11° Asphalt 0 ft / 0 m 643 ft / 196 m
19 148 ft / 45 m 10,502 ft / 3,201 m 192.29° 189.85° Asphalt 0 ft / 0 m 197 ft / 60 m
29 148 ft / 45 m 9,345 ft / 2,848 m 292.57° 290.13° Asphalt 657 ft / 200 m 197 ft / 60 m

Approach Navaids

Runway Type Ident Frequency Range Bearing (true) Bearing (mag) Slope Elevation
01 Glidescope TBL 111.10 MHz 10 nm / 19 km 10.00° 7.56° 3.00° 22 ft / 7 m (AMSL)
01 DME TBL 111.10 MHz 18 nm / 33 km - - - 22 ft / 7 m (AMSL)
19 Localiser TSI 110.30 MHz 18 nm / 33 km 192.29° 189.84° - 13 ft / 4 m (AMSL)
19 Glidescope TSI 110.30 MHz 10 nm / 19 km 192.29° 189.84° 3.00° 22 ft / 7 m (AMSL)
29 Localiser TKE 108.50 MHz 18 nm / 33 km 292.54° 290.10° - 22 ft / 7 m (AMSL)
29 Glidescope TKE 108.50 MHz 10 nm / 19 km 292.56° 290.11° 3.00° 22 ft / 7 m (AMSL)
29 DME TKE 108.50 MHz 18 nm / 33 km - - - 22 ft / 7 m (AMSL)

Popular Alternatives